sensor_id;sensor_type;location;lat;lon;timestamp;P1;durP1;ratioP1;P2;durP2;ratioP2
51286;SDS011;37364;46.974;18.916;2023-08-12T00:00:57;9.88;;;5.55;;
51286;SDS011;37364;46.974;18.916;2023-08-12T00:03:28;17.13;;;5.95;;
51286;SDS011;37364;46.974;18.916;2023-08-12T00:05:58;15.63;;;6.18;;
51286;SDS011;37364;46.974;18.916;2023-08-12T00:08:34;15.93;;;5.95;;
51286;SDS011;37364;46.974;18.916;2023-08-12T00:11:04;19.73;;;6.28;;
51286;SDS011;37364;46.974;18.916;2023-08-12T00:13:35;15.20;;;6.03;;
51286;SDS011;37364;46.974;18.916;2023-08-12T00:16:05;10.77;;;5.63;;
51286;SDS011;37364;46.974;18.916;2023-08-12T00:18:35;11.88;;;5.28;;
51286;SDS011;37364;46.974;18.916;2023-08-12T00:21:09;13.77;;;5.45;;
51286;SDS011;37364;46.974;18.916;2023-08-12T00:26:14;12.25;;;6.05;;
51286;SDS011;37364;46.974;18.916;2023-08-12T00:28:44;11.82;;;5.65;;
51286;SDS011;37364;46.974;18.916;2023-08-12T00:31:14;17.23;;;5.65;;
51286;SDS011;37364;46.974;18.916;2023-08-12T00:33:46;21.10;;;5.95;;
51286;SDS011;37364;46.974;18.916;2023-08-12T00:36:16;27.98;;;6.35;;
51286;SDS011;37364;46.974;18.916;2023-08-12T00:38:49;9.45;;;5.70;;
51286;SDS011;37364;46.974;18.916;2023-08-12T00:41:19;13.27;;;4.93;;
51286;SDS011;37364;46.974;18.916;2023-08-12T00:43:49;18.40;;;6.55;;
51286;SDS011;37364;46.974;18.916;2023-08-12T00:46:19;7.78;;;5.28;;
51286;SDS011;37364;46.974;18.916;2023-08-12T00:48:50;20.30;;;5.03;;
51286;SDS011;37364;46.974;18.916;2023-08-12T00:51:20;10.40;;;4.72;;
51286;SDS011;37364;46.974;18.916;2023-08-12T00:53:53;21.20;;;5.70;;
51286;SDS011;37364;46.974;18.916;2023-08-12T00:56:26;12.65;;;5.55;;
51286;SDS011;37364;46.974;18.916;2023-08-12T00:58:57;10.40;;;5.45;;
51286;SDS011;37364;46.974;18.916;2023-08-12T01:01:29;8.93;;;5.65;;
51286;SDS011;37364;46.974;18.916;2023-08-12T01:04:00;16.30;;;6.20;;
51286;SDS011;37364;46.974;18.916;2023-08-12T01:06:30;13.02;;;5.68;;
51286;SDS011;37364;46.974;18.916;2023-08-12T01:09:04;12.82;;;5.30;;
51286;SDS011;37364;46.974;18.916;2023-08-12T01:11:36;8.13;;;4.85;;
51286;SDS011;37364;46.974;18.916;2023-08-12T01:14:12;8.50;;;5.53;;
51286;SDS011;37364;46.974;18.916;2023-08-12T01:16:47;28.13;;;6.00;;
51286;SDS011;37364;46.974;18.916;2023-08-12T01:19:22;10.95;;;5.78;;
51286;SDS011;37364;46.974;18.916;2023-08-12T01:21:59;7.90;;;4.22;;
51286;SDS011;37364;46.974;18.916;2023-08-12T01:24:36;14.80;;;6.05;;
51286;SDS011;37364;46.974;18.916;2023-08-12T01:27:07;9.52;;;6.00;;
51286;SDS011;37364;46.974;18.916;2023-08-12T01:29:40;11.68;;;5.53;;
51286;SDS011;37364;46.974;18.916;2023-08-12T01:32:14;11.63;;;5.23;;
51286;SDS011;37364;46.974;18.916;2023-08-12T01:34:55;11.48;;;5.30;;
51286;SDS011;37364;46.974;18.916;2023-08-12T01:37:31;10.05;;;5.65;;
51286;SDS011;37364;46.974;18.916;2023-08-12T01:40:06;9.40;;;4.70;;
51286;SDS011;37364;46.974;18.916;2023-08-12T01:42:39;7.78;;;5.40;;
51286;SDS011;37364;46.974;18.916;2023-08-12T01:45:10;9.85;;;6.20;;
51286;SDS011;37364;46.974;18.916;2023-08-12T01:47:42;9.50;;;5.95;;
51286;SDS011;37364;46.974;18.916;2023-08-12T01:50:13;7.95;;;5.35;;
51286;SDS011;37364;46.974;18.916;2023-08-12T01:52:43;14.85;;;6.05;;
51286;SDS011;37364;46.974;18.916;2023-08-12T01:55:16;15.77;;;5.65;;
51286;SDS011;37364;46.974;18.916;2023-08-12T01:57:48;16.13;;;6.78;;
51286;SDS011;37364;46.974;18.916;2023-08-12T02:00:19;8.55;;;5.53;;
51286;SDS011;37364;46.974;18.916;2023-08-12T02:02:49;9.23;;;6.78;;
51286;SDS011;37364;46.974;18.916;2023-08-12T02:05:19;10.18;;;6.00;;
51286;SDS011;37364;46.974;18.916;2023-08-12T02:07:50;15.75;;;6.18;;
51286;SDS011;37364;46.974;18.916;2023-08-12T02:10:22;18.38;;;7.15;;
51286;SDS011;37364;46.974;18.916;2023-08-12T02:12:54;12.88;;;6.50;;
51286;SDS011;37364;46.974;18.916;2023-08-12T02:15:25;14.27;;;6.43;;
51286;SDS011;37364;46.974;18.916;2023-08-12T02:17:55;17.05;;;6.22;;
51286;SDS011;37364;46.974;18.916;2023-08-12T02:20:26;12.40;;;6.53;;
51286;SDS011;37364;46.974;18.916;2023-08-12T02:22:56;10.63;;;6.53;;
51286;SDS011;37364;46.974;18.916;2023-08-12T02:25:30;22.13;;;7.47;;
51286;SDS011;37364;46.974;18.916;2023-08-12T02:28:00;12.18;;;6.63;;
51286;SDS011;37364;46.974;18.916;2023-08-12T02:30:31;17.88;;;6.72;;
51286;SDS011;37364;46.974;18.916;2023-08-12T02:33:02;8.20;;;6.65;;
51286;SDS011;37364;46.974;18.916;2023-08-12T02:35:33;7.82;;;6.82;;
51286;SDS011;37364;46.974;18.916;2023-08-12T02:38:03;13.18;;;6.70;;
51286;SDS011;37364;46.974;18.916;2023-08-12T02:40:36;12.38;;;6.93;;
51286;SDS011;37364;46.974;18.916;2023-08-12T02:43:06;12.38;;;6.20;;
51286;SDS011;37364;46.974;18.916;2023-08-12T02:45:38;8.00;;;6.10;;
51286;SDS011;37364;46.974;18.916;2023-08-12T02:48:09;10.18;;;6.25;;
51286;SDS011;37364;46.974;18.916;2023-08-12T02:50:40;12.30;;;7.07;;
51286;SDS011;37364;46.974;18.916;2023-08-12T02:53:10;15.30;;;7.55;;
51286;SDS011;37364;46.974;18.916;2023-08-12T02:55:43;13.23;;;6.20;;
51286;SDS011;37364;46.974;18.916;2023-08-12T02:58:14;7.65;;;6.68;;
51286;SDS011;37364;46.974;18.916;2023-08-12T03:00:44;8.02;;;6.22;;
51286;SDS011;37364;46.974;18.916;2023-08-12T03:03:15;11.88;;;6.55;;
51286;SDS011;37364;46.974;18.916;2023-08-12T03:05:46;13.10;;;7.45;;
51286;SDS011;37364;46.974;18.916;2023-08-12T03:08:17;15.38;;;7.40;;
51286;SDS011;37364;46.974;18.916;2023-08-12T03:10:50;11.88;;;7.25;;
51286;SDS011;37364;46.974;18.916;2023-08-12T03:13:27;8.57;;;6.05;;
51286;SDS011;37364;46.974;18.916;2023-08-12T03:15:58;15.30;;;7.25;;
51286;SDS011;37364;46.974;18.916;2023-08-12T03:18:30;10.15;;;6.78;;
51286;SDS011;37364;46.974;18.916;2023-08-12T03:21:04;23.00;;;8.05;;
51286;SDS011;37364;46.974;18.916;2023-08-12T03:23:36;9.55;;;6.63;;
51286;SDS011;37364;46.974;18.916;2023-08-12T03:26:11;10.48;;;8.05;;
51286;SDS011;37364;46.974;18.916;2023-08-12T03:28:41;10.27;;;7.95;;
51286;SDS011;37364;46.974;18.916;2023-08-12T03:31:16;12.05;;;8.10;;
51286;SDS011;37364;46.974;18.916;2023-08-12T03:33:47;13.10;;;8.25;;
51286;SDS011;37364;46.974;18.916;2023-08-12T03:36:18;10.75;;;7.40;;
51286;SDS011;37364;46.974;18.916;2023-08-12T03:38:48;11.65;;;8.13;;
51286;SDS011;37364;46.974;18.916;2023-08-12T03:41:27;12.70;;;8.48;;
51286;SDS011;37364;46.974;18.916;2023-08-12T03:44:01;19.75;;;8.65;;
51286;SDS011;37364;46.974;18.916;2023-08-12T03:46:31;9.60;;;7.07;;
51286;SDS011;37364;46.974;18.916;2023-08-12T03:49:02;9.55;;;7.53;;
51286;SDS011;37364;46.974;18.916;2023-08-12T03:51:33;12.18;;;8.20;;
51286;SDS011;37364;46.974;18.916;2023-08-12T03:54:03;10.38;;;7.47;;
51286;SDS011;37364;46.974;18.916;2023-08-12T03:56:37;13.10;;;7.50;;
51286;SDS011;37364;46.974;18.916;2023-08-12T03:59:07;9.45;;;8.20;;
51286;SDS011;37364;46.974;18.916;2023-08-12T04:01:37;14.75;;;7.70;;
51286;SDS011;37364;46.974;18.916;2023-08-12T04:04:07;13.77;;;7.82;;
51286;SDS011;37364;46.974;18.916;2023-08-12T04:06:40;8.05;;;7.00;;
51286;SDS011;37364;46.974;18.916;2023-08-12T04:09:10;10.13;;;7.70;;
51286;SDS011;37364;46.974;18.916;2023-08-12T04:11:43;12.32;;;7.25;;
51286;SDS011;37364;46.974;18.916;2023-08-12T04:14:13;10.70;;;7.93;;
51286;SDS011;37364;46.974;18.916;2023-08-12T04:16:43;10.63;;;6.75;;
51286;SDS011;37364;46.974;18.916;2023-08-12T04:19:16;9.93;;;7.05;;
51286;SDS011;37364;46.974;18.916;2023-08-12T04:21:46;8.55;;;7.55;;
51286;SDS011;37364;46.974;18.916;2023-08-12T04:24:17;9.00;;;8.10;;
51286;SDS011;37364;46.974;18.916;2023-08-12T04:26:50;12.75;;;7.57;;
51286;SDS011;37364;46.974;18.916;2023-08-12T04:31:50;16.40;;;6.28;;
51286;SDS011;37364;46.974;18.916;2023-08-12T04:34:21;7.47;;;6.40;;
51286;SDS011;37364;46.974;18.916;2023-08-12T04:36:52;12.88;;;7.13;;
51286;SDS011;37364;46.974;18.916;2023-08-12T04:39:23;9.63;;;6.60;;
51286;SDS011;37364;46.974;18.916;2023-08-12T04:41:55;11.35;;;6.75;;
51286;SDS011;37364;46.974;18.916;2023-08-12T04:44:26;9.77;;;6.97;;
51286;SDS011;37364;46.974;18.916;2023-08-12T04:46:56;9.25;;;5.95;;
51286;SDS011;37364;46.974;18.916;2023-08-12T04:49:27;16.83;;;7.38;;
51286;SDS011;37364;46.974;18.916;2023-08-12T04:51:58;6.82;;;6.00;;
51286;SDS011;37364;46.974;18.916;2023-08-12T04:54:28;23.45;;;8.25;;
51286;SDS011;37364;46.974;18.916;2023-08-12T04:57:01;10.25;;;7.55;;
51286;SDS011;37364;46.974;18.916;2023-08-12T04:59:32;12.18;;;7.32;;
51286;SDS011;37364;46.974;18.916;2023-08-12T05:02:02;13.68;;;8.75;;
51286;SDS011;37364;46.974;18.916;2023-08-12T05:04:35;12.20;;;8.05;;
51286;SDS011;37364;46.974;18.916;2023-08-12T05:07:05;11.80;;;8.18;;
51286;SDS011;37364;46.974;18.916;2023-08-12T05:09:35;16.23;;;7.93;;
51286;SDS011;37364;46.974;18.916;2023-08-12T05:12:09;8.32;;;7.47;;
51286;SDS011;37364;46.974;18.916;2023-08-12T05:14:39;25.42;;;8.10;;
51286;SDS011;37364;46.974;18.916;2023-08-12T05:17:10;15.70;;;8.13;;
51286;SDS011;37364;46.974;18.916;2023-08-12T05:19:42;17.42;;;8.02;;
51286;SDS011;37364;46.974;18.916;2023-08-12T05:22:12;10.93;;;7.53;;
51286;SDS011;37364;46.974;18.916;2023-08-12T05:24:43;13.32;;;7.13;;
51286;SDS011;37364;46.974;18.916;2023-08-12T05:27:15;11.27;;;7.32;;
51286;SDS011;37364;46.974;18.916;2023-08-12T05:29:46;9.83;;;6.10;;
51286;SDS011;37364;46.974;18.916;2023-08-12T05:32:16;9.43;;;5.85;;
51286;SDS011;37364;46.974;18.916;2023-08-12T05:34:49;11.38;;;5.80;;
51286;SDS011;37364;46.974;18.916;2023-08-12T05:37:19;8.00;;;6.20;;
51286;SDS011;37364;46.974;18.916;2023-08-12T05:39:49;11.18;;;5.95;;
51286;SDS011;37364;46.974;18.916;2023-08-12T05:42:22;15.80;;;6.68;;
51286;SDS011;37364;46.974;18.916;2023-08-12T05:44:52;22.83;;;7.82;;
51286;SDS011;37364;46.974;18.916;2023-08-12T05:47:22;8.45;;;6.15;;
51286;SDS011;37364;46.974;18.916;2023-08-12T05:49:53;19.20;;;6.88;;
51286;SDS011;37364;46.974;18.916;2023-08-12T05:52:23;6.85;;;5.93;;
51286;SDS011;37364;46.974;18.916;2023-08-12T05:54:53;19.55;;;5.38;;
51286;SDS011;37364;46.974;18.916;2023-08-12T05:57:26;12.80;;;5.45;;
51286;SDS011;37364;46.974;18.916;2023-08-12T05:59:56;8.32;;;4.82;;
51286;SDS011;37364;46.974;18.916;2023-08-12T06:02:39;10.23;;;4.03;;
51286;SDS011;37364;46.974;18.916;2023-08-12T06:05:09;5.35;;;4.20;;
51286;SDS011;37364;46.974;18.916;2023-08-12T06:07:40;12.10;;;4.75;;
51286;SDS011;37364;46.974;18.916;2023-08-12T06:10:10;12.30;;;5.15;;
51286;SDS011;37364;46.974;18.916;2023-08-12T06:12:43;11.10;;;4.30;;
51286;SDS011;37364;46.974;18.916;2023-08-12T06:15:13;10.93;;;4.25;;
51286;SDS011;37364;46.974;18.916;2023-08-12T06:17:43;9.02;;;4.45;;
51286;SDS011;37364;46.974;18.916;2023-08-12T06:20:14;9.98;;;4.57;;
51286;SDS011;37364;46.974;18.916;2023-08-12T06:22:45;8.20;;;5.22;;
51286;SDS011;37364;46.974;18.916;2023-08-12T06:25:15;9.05;;;3.92;;
51286;SDS011;37364;46.974;18.916;2023-08-12T06:27:48;7.40;;;4.65;;
51286;SDS011;37364;46.974;18.916;2023-08-12T06:30:19;5.00;;;3.75;;
51286;SDS011;37364;46.974;18.916;2023-08-12T06:32:52;11.50;;;4.55;;
51286;SDS011;37364;46.974;18.916;2023-08-12T06:35:22;9.80;;;4.22;;
51286;SDS011;37364;46.974;18.916;2023-08-12T06:37:52;6.90;;;4.30;;
51286;SDS011;37364;46.974;18.916;2023-08-12T06:40:23;7.82;;;4.43;;
51286;SDS011;37364;46.974;18.916;2023-08-12T06:42:56;12.02;;;4.03;;
51286;SDS011;37364;46.974;18.916;2023-08-12T06:45:26;14.02;;;4.10;;
51286;SDS011;37364;46.974;18.916;2023-08-12T06:47:57;5.93;;;4.38;;
51286;SDS011;37364;46.974;18.916;2023-08-12T06:50:28;6.15;;;4.00;;
51286;SDS011;37364;46.974;18.916;2023-08-12T06:53:00;5.07;;;4.35;;
51286;SDS011;37364;46.974;18.916;2023-08-12T06:55:30;8.88;;;5.32;;
51286;SDS011;37364;46.974;18.916;2023-08-12T06:58:03;10.07;;;5.25;;
51286;SDS011;37364;46.974;18.916;2023-08-12T07:00:33;14.52;;;5.10;;
51286;SDS011;37364;46.974;18.916;2023-08-12T07:03:04;8.20;;;5.00;;
51286;SDS011;37364;46.974;18.916;2023-08-12T07:05:35;9.77;;;5.10;;
51286;SDS011;37364;46.974;18.916;2023-08-12T07:08:05;11.80;;;4.95;;
51286;SDS011;37364;46.974;18.916;2023-08-12T07:10:37;5.00;;;4.50;;
51286;SDS011;37364;46.974;18.916;2023-08-12T07:13:10;17.23;;;4.82;;
51286;SDS011;37364;46.974;18.916;2023-08-12T07:15:41;8.98;;;5.28;;
51286;SDS011;37364;46.974;18.916;2023-08-12T07:18:11;6.60;;;5.45;;
51286;SDS011;37364;46.974;18.916;2023-08-12T07:20:42;14.90;;;5.28;;
51286;SDS011;37364;46.974;18.916;2023-08-12T07:23:12;20.52;;;5.47;;
51286;SDS011;37364;46.974;18.916;2023-08-12T07:25:42;14.13;;;5.15;;
51286;SDS011;37364;46.974;18.916;2023-08-12T07:28:17;15.05;;;4.88;;
51286;SDS011;37364;46.974;18.916;2023-08-12T07:30:47;7.65;;;4.28;;
51286;SDS011;37364;46.974;18.916;2023-08-12T07:33:19;5.85;;;4.13;;
51286;SDS011;37364;46.974;18.916;2023-08-12T07:35:49;6.55;;;5.28;;
51286;SDS011;37364;46.974;18.916;2023-08-12T07:38:20;9.52;;;5.25;;
51286;SDS011;37364;46.974;18.916;2023-08-12T07:40:51;12.88;;;5.97;;
51286;SDS011;37364;46.974;18.916;2023-08-12T07:43:24;10.35;;;5.20;;
51286;SDS011;37364;46.974;18.916;2023-08-12T07:45:54;5.15;;;4.63;;
51286;SDS011;37364;46.974;18.916;2023-08-12T07:48:35;6.68;;;5.28;;
51286;SDS011;37364;46.974;18.916;2023-08-12T07:51:06;7.80;;;4.78;;
51286;SDS011;37364;46.974;18.916;2023-08-12T07:53:36;7.88;;;4.78;;
51286;SDS011;37364;46.974;18.916;2023-08-12T07:56:06;6.40;;;4.35;;
51286;SDS011;37364;46.974;18.916;2023-08-12T07:58:39;6.95;;;4.30;;
51286;SDS011;37364;46.974;18.916;2023-08-12T08:01:09;12.93;;;4.78;;
51286;SDS011;37364;46.974;18.916;2023-08-12T08:03:39;10.43;;;4.50;;
51286;SDS011;37364;46.974;18.916;2023-08-12T08:06:10;5.15;;;3.85;;
51286;SDS011;37364;46.974;18.916;2023-08-12T08:08:40;16.42;;;4.70;;
51286;SDS011;37364;46.974;18.916;2023-08-12T08:11:10;11.23;;;4.10;;
51286;SDS011;37364;46.974;18.916;2023-08-12T08:13:43;16.02;;;4.60;;
51286;SDS011;37364;46.974;18.916;2023-08-12T08:16:13;5.75;;;4.03;;
51286;SDS011;37364;46.974;18.916;2023-08-12T08:18:43;9.30;;;4.40;;
51286;SDS011;37364;46.974;18.916;2023-08-12T08:21:14;10.57;;;3.95;;
51286;SDS011;37364;46.974;18.916;2023-08-12T08:23:44;18.67;;;4.10;;
51286;SDS011;37364;46.974;18.916;2023-08-12T08:26:15;7.53;;;3.70;;
51286;SDS011;37364;46.974;18.916;2023-08-12T08:28:48;11.18;;;3.97;;
51286;SDS011;37364;46.974;18.916;2023-08-12T08:31:18;11.40;;;3.70;;
51286;SDS011;37364;46.974;18.916;2023-08-12T08:33:48;8.45;;;3.60;;
51286;SDS011;37364;46.974;18.916;2023-08-12T08:36:18;14.93;;;4.18;;
51286;SDS011;37364;46.974;18.916;2023-08-12T08:38:48;5.57;;;4.00;;
51286;SDS011;37364;46.974;18.916;2023-08-12T08:41:18;6.80;;;3.60;;
51286;SDS011;37364;46.974;18.916;2023-08-12T08:43:52;5.30;;;3.58;;
51286;SDS011;37364;46.974;18.916;2023-08-12T08:46:25;8.02;;;3.60;;
51286;SDS011;37364;46.974;18.916;2023-08-12T08:48:55;6.18;;;3.28;;
51286;SDS011;37364;46.974;18.916;2023-08-12T08:51:30;5.53;;;3.05;;
51286;SDS011;37364;46.974;18.916;2023-08-12T08:54:02;7.90;;;3.63;;
51286;SDS011;37364;46.974;18.916;2023-08-12T08:56:33;8.88;;;3.40;;
51286;SDS011;37364;46.974;18.916;2023-08-12T08:59:20;11.52;;;3.08;;
51286;SDS011;37364;46.974;18.916;2023-08-12T09:01:51;21.00;;;3.00;;
51286;SDS011;37364;46.974;18.916;2023-08-12T09:04:25;8.52;;;3.05;;
51286;SDS011;37364;46.974;18.916;2023-08-12T09:06:56;4.50;;;2.63;;
51286;SDS011;37364;46.974;18.916;2023-08-12T09:09:28;6.15;;;3.30;;
51286;SDS011;37364;46.974;18.916;2023-08-12T09:11:58;6.97;;;2.75;;
51286;SDS011;37364;46.974;18.916;2023-08-12T09:14:31;6.25;;;2.67;;
51286;SDS011;37364;46.974;18.916;2023-08-12T09:17:02;3.83;;;2.85;;
51286;SDS011;37364;46.974;18.916;2023-08-12T09:19:32;10.95;;;2.63;;
51286;SDS011;37364;46.974;18.916;2023-08-12T09:22:02;7.28;;;2.80;;
51286;SDS011;37364;46.974;18.916;2023-08-12T09:24:33;6.72;;;2.50;;
51286;SDS011;37364;46.974;18.916;2023-08-12T09:27:04;11.32;;;2.70;;
51286;SDS011;37364;46.974;18.916;2023-08-12T09:29:37;2.47;;;2.10;;
51286;SDS011;37364;46.974;18.916;2023-08-12T09:32:09;26.17;;;2.55;;
51286;SDS011;37364;46.974;18.916;2023-08-12T09:34:45;3.72;;;2.47;;
51286;SDS011;37364;46.974;18.916;2023-08-12T09:37:18;4.20;;;2.28;;
51286;SDS011;37364;46.974;18.916;2023-08-12T09:39:49;5.80;;;2.15;;
51286;SDS011;37364;46.974;18.916;2023-08-12T09:42:20;7.18;;;2.05;;
51286;SDS011;37364;46.974;18.916;2023-08-12T09:44:53;3.50;;;2.17;;
51286;SDS011;37364;46.974;18.916;2023-08-12T09:49:55;11.10;;;2.05;;
51286;SDS011;37364;46.974;18.916;2023-08-12T09:52:27;10.20;;;1.77;;
51286;SDS011;37364;46.974;18.916;2023-08-12T09:54:57;4.18;;;1.63;;
51286;SDS011;37364;46.974;18.916;2023-08-12T09:57:29;5.68;;;1.75;;
51286;SDS011;37364;46.974;18.916;2023-08-12T10:00:07;3.22;;;2.00;;
51286;SDS011;37364;46.974;18.916;2023-08-12T10:02:42;7.00;;;2.25;;
51286;SDS011;37364;46.974;18.916;2023-08-12T10:05:15;5.55;;;2.28;;
51286;SDS011;37364;46.974;18.916;2023-08-12T10:07:49;5.60;;;2.40;;
51286;SDS011;37364;46.974;18.916;2023-08-12T10:10:19;8.82;;;2.22;;
51286;SDS011;37364;46.974;18.916;2023-08-12T10:12:51;4.47;;;2.20;;
51286;SDS011;37364;46.974;18.916;2023-08-12T10:15:24;5.97;;;2.13;;
51286;SDS011;37364;46.974;18.916;2023-08-12T10:17:55;7.57;;;2.35;;
51286;SDS011;37364;46.974;18.916;2023-08-12T10:20:28;2.80;;;2.17;;
51286;SDS011;37364;46.974;18.916;2023-08-12T10:23:00;7.28;;;2.90;;
51286;SDS011;37364;46.974;18.916;2023-08-12T10:25:32;4.60;;;2.47;;
51286;SDS011;37364;46.974;18.916;2023-08-12T10:28:03;9.32;;;2.70;;
51286;SDS011;37364;46.974;18.916;2023-08-12T10:30:36;5.07;;;2.40;;
51286;SDS011;37364;46.974;18.916;2023-08-12T10:33:11;10.82;;;2.60;;
51286;SDS011;37364;46.974;18.916;2023-08-12T10:35:45;7.13;;;2.58;;
51286;SDS011;37364;46.974;18.916;2023-08-12T10:38:17;6.80;;;2.40;;
51286;SDS011;37364;46.974;18.916;2023-08-12T10:40:48;15.55;;;2.40;;
51286;SDS011;37364;46.974;18.916;2023-08-12T10:43:20;5.05;;;2.17;;
51286;SDS011;37364;46.974;18.916;2023-08-12T10:45:54;4.38;;;2.28;;
51286;SDS011;37364;46.974;18.916;2023-08-12T10:48:25;5.20;;;2.38;;
51286;SDS011;37364;46.974;18.916;2023-08-12T10:50:59;6.95;;;2.15;;
51286;SDS011;37364;46.974;18.916;2023-08-12T10:53:31;8.30;;;2.50;;
51286;SDS011;37364;46.974;18.916;2023-08-12T10:56:03;3.42;;;1.83;;
51286;SDS011;37364;46.974;18.916;2023-08-12T10:58:34;8.90;;;2.33;;
51286;SDS011;37364;46.974;18.916;2023-08-12T11:01:13;3.42;;;1.92;;
51286;SDS011;37364;46.974;18.916;2023-08-12T11:03:47;5.32;;;2.17;;
51286;SDS011;37364;46.974;18.916;2023-08-12T11:06:19;4.25;;;2.03;;
51286;SDS011;37364;46.974;18.916;2023-08-12T11:08:51;5.60;;;2.33;;
51286;SDS011;37364;46.974;18.916;2023-08-12T11:11:23;13.13;;;2.97;;
51286;SDS011;37364;46.974;18.916;2023-08-12T11:13:53;13.57;;;2.42;;
51286;SDS011;37364;46.974;18.916;2023-08-12T11:16:34;6.95;;;2.33;;
51286;SDS011;37364;46.974;18.916;2023-08-12T11:19:05;2.55;;;1.88;;
51286;SDS011;37364;46.974;18.916;2023-08-12T11:21:35;4.50;;;2.13;;
51286;SDS011;37364;46.974;18.916;2023-08-12T11:24:06;5.15;;;2.28;;
51286;SDS011;37364;46.974;18.916;2023-08-12T11:26:37;5.22;;;2.95;;
51286;SDS011;37364;46.974;18.916;2023-08-12T11:29:09;9.50;;;2.67;;
51286;SDS011;37364;46.974;18.916;2023-08-12T11:31:43;6.03;;;2.75;;
51286;SDS011;37364;46.974;18.916;2023-08-12T11:34:14;6.70;;;2.80;;
51286;SDS011;37364;46.974;18.916;2023-08-12T11:36:45;2.33;;;2.13;;
51286;SDS011;37364;46.974;18.916;2023-08-12T11:39:16;3.00;;;2.10;;
51286;SDS011;37364;46.974;18.916;2023-08-12T11:41:50;5.07;;;2.03;;
51286;SDS011;37364;46.974;18.916;2023-08-12T11:44:21;15.02;;;2.63;;
51286;SDS011;37364;46.974;18.916;2023-08-12T11:46:56;4.05;;;1.90;;
51286;SDS011;37364;46.974;18.916;2023-08-12T11:49:26;6.53;;;2.42;;
51286;SDS011;37364;46.974;18.916;2023-08-12T11:51:57;3.30;;;2.53;;
51286;SDS011;37364;46.974;18.916;2023-08-12T11:54:27;6.55;;;2.25;;
51286;SDS011;37364;46.974;18.916;2023-08-12T11:56:58;6.28;;;2.15;;
51286;SDS011;37364;46.974;18.916;2023-08-12T11:59:30;4.80;;;2.53;;
51286;SDS011;37364;46.974;18.916;2023-08-12T12:02:04;10.48;;;2.30;;
51286;SDS011;37364;46.974;18.916;2023-08-12T12:04:34;6.40;;;2.17;;
51286;SDS011;37364;46.974;18.916;2023-08-12T12:07:16;5.78;;;2.50;;
51286;SDS011;37364;46.974;18.916;2023-08-12T12:09:50;15.02;;;2.15;;
51286;SDS011;37364;46.974;18.916;2023-08-12T12:14:55;2.28;;;1.98;;
51286;SDS011;37364;46.974;18.916;2023-08-12T12:17:28;3.55;;;2.22;;
51286;SDS011;37364;46.974;18.916;2023-08-12T12:20:00;4.32;;;2.10;;
51286;SDS011;37364;46.974;18.916;2023-08-12T12:22:32;4.97;;;2.47;;
51286;SDS011;37364;46.974;18.916;2023-08-12T12:25:05;5.20;;;2.10;;
51286;SDS011;37364;46.974;18.916;2023-08-12T12:27:37;7.97;;;2.35;;
51286;SDS011;37364;46.974;18.916;2023-08-12T12:30:08;6.93;;;2.35;;
51286;SDS011;37364;46.974;18.916;2023-08-12T12:32:43;4.22;;;2.40;;
51286;SDS011;37364;46.974;18.916;2023-08-12T12:37:43;7.40;;;2.15;;
51286;SDS011;37364;46.974;18.916;2023-08-12T12:40:13;4.65;;;1.95;;
51286;SDS011;37364;46.974;18.916;2023-08-12T12:42:43;3.22;;;2.22;;
51286;SDS011;37364;46.974;18.916;2023-08-12T12:45:14;4.53;;;2.15;;
51286;SDS011;37364;46.974;18.916;2023-08-12T12:47:47;5.50;;;2.30;;
51286;SDS011;37364;46.974;18.916;2023-08-12T12:50:18;12.68;;;2.47;;
51286;SDS011;37364;46.974;18.916;2023-08-12T12:52:48;5.20;;;2.17;;
51286;SDS011;37364;46.974;18.916;2023-08-12T12:55:18;6.95;;;3.05;;
51286;SDS011;37364;46.974;18.916;2023-08-12T12:57:48;4.32;;;2.42;;
51286;SDS011;37364;46.974;18.916;2023-08-12T13:00:19;8.18;;;2.33;;
51286;SDS011;37364;46.974;18.916;2023-08-12T13:02:52;4.85;;;2.22;;
51286;SDS011;37364;46.974;18.916;2023-08-12T13:07:52;11.73;;;2.20;;
51286;SDS011;37364;46.974;18.916;2023-08-12T13:10:22;9.82;;;2.30;;
51286;SDS011;37364;46.974;18.916;2023-08-12T13:12:52;9.20;;;2.72;;
51286;SDS011;37364;46.974;18.916;2023-08-12T13:15:24;3.65;;;2.10;;
51286;SDS011;37364;46.974;18.916;2023-08-12T13:17:57;10.07;;;2.70;;
51286;SDS011;37364;46.974;18.916;2023-08-12T13:22:57;4.80;;;2.50;;
51286;SDS011;37364;46.974;18.916;2023-08-12T13:25:27;7.20;;;2.67;;
51286;SDS011;37364;46.974;18.916;2023-08-12T13:28:00;4.90;;;2.75;;
51286;SDS011;37364;46.974;18.916;2023-08-12T13:30:31;6.25;;;2.58;;
51286;SDS011;37364;46.974;18.916;2023-08-12T13:35:36;4.45;;;2.10;;
51286;SDS011;37364;46.974;18.916;2023-08-12T13:38:07;7.25;;;2.38;;
51286;SDS011;37364;46.974;18.916;2023-08-12T13:40:37;5.88;;;2.45;;
51286;SDS011;37364;46.974;18.916;2023-08-12T13:43:07;9.15;;;2.10;;
51286;SDS011;37364;46.974;18.916;2023-08-12T13:45:37;4.05;;;2.33;;
51286;SDS011;37364;46.974;18.916;2023-08-12T13:48:10;5.68;;;2.70;;
51286;SDS011;37364;46.974;18.916;2023-08-12T13:50:41;5.68;;;2.55;;
51286;SDS011;37364;46.974;18.916;2023-08-12T13:53:16;11.75;;;2.70;;
51286;SDS011;37364;46.974;18.916;2023-08-12T13:55:46;6.93;;;2.03;;
51286;SDS011;37364;46.974;18.916;2023-08-12T13:58:16;3.53;;;1.90;;
51286;SDS011;37364;46.974;18.916;2023-08-12T14:00:46;4.15;;;2.45;;
51286;SDS011;37364;46.974;18.916;2023-08-12T14:03:19;6.45;;;2.45;;
51286;SDS011;37364;46.974;18.916;2023-08-12T14:05:50;12.15;;;2.55;;
51286;SDS011;37364;46.974;18.916;2023-08-12T14:08:20;4.38;;;2.20;;
51286;SDS011;37364;46.974;18.916;2023-08-12T14:10:50;3.47;;;2.28;;
51286;SDS011;37364;46.974;18.916;2023-08-12T14:13:20;6.45;;;2.20;;
51286;SDS011;37364;46.974;18.916;2023-08-12T14:15:53;9.87;;;2.30;;
51286;SDS011;37364;46.974;18.916;2023-08-12T14:18:26;8.73;;;1.95;;
51286;SDS011;37364;46.974;18.916;2023-08-12T14:20:56;6.25;;;2.13;;
51286;SDS011;37364;46.974;18.916;2023-08-12T14:23:26;3.47;;;2.08;;
51286;SDS011;37364;46.974;18.916;2023-08-12T14:25:56;6.88;;;2.72;;
51286;SDS011;37364;46.974;18.916;2023-08-12T14:28:26;4.93;;;2.15;;
51286;SDS011;37364;46.974;18.916;2023-08-12T14:30:57;5.38;;;2.38;;
51286;SDS011;37364;46.974;18.916;2023-08-12T14:33:30;4.43;;;2.67;;
51286;SDS011;37364;46.974;18.916;2023-08-12T14:36:00;6.28;;;2.50;;
51286;SDS011;37364;46.974;18.916;2023-08-12T14:38:30;5.63;;;2.58;;
51286;SDS011;37364;46.974;18.916;2023-08-12T14:41:01;6.25;;;2.65;;
51286;SDS011;37364;46.974;18.916;2023-08-12T14:43:32;4.82;;;2.28;;
51286;SDS011;37364;46.974;18.916;2023-08-12T14:46:03;8.45;;;2.08;;
51286;SDS011;37364;46.974;18.916;2023-08-12T14:48:36;4.72;;;2.30;;
51286;SDS011;37364;46.974;18.916;2023-08-12T14:51:06;10.00;;;2.47;;
51286;SDS011;37364;46.974;18.916;2023-08-12T14:53:37;12.75;;;2.40;;
51286;SDS011;37364;46.974;18.916;2023-08-12T14:56:07;6.95;;;2.35;;
51286;SDS011;37364;46.974;18.916;2023-08-12T14:58:37;5.03;;;2.70;;
51286;SDS011;37364;46.974;18.916;2023-08-12T15:01:07;16.38;;;2.25;;
51286;SDS011;37364;46.974;18.916;2023-08-12T15:03:40;3.90;;;2.60;;
51286;SDS011;37364;46.974;18.916;2023-08-12T15:06:13;2.65;;;2.28;;
51286;SDS011;37364;46.974;18.916;2023-08-12T15:08:44;3.42;;;2.58;;
51286;SDS011;37364;46.974;18.916;2023-08-12T15:11:14;3.92;;;2.25;;
51286;SDS011;37364;46.974;18.916;2023-08-12T15:13:44;7.03;;;1.92;;